Portada
METAR-TAF:

METAR-TAF

Aeroports :

Wiesbaden, Alemanya

latitud: 50-03N, longitud: 008-20E, altitud: 140 m

Observació

L'informe es va fer fa 13 minuts, a les 19:56 UTC
Vent calma
Temperatura 28°C
Humitat 58%
Pressió 1012 hPa
Visibilitat 10 km o més
Cel clar

METAR: ETOU 181956Z AUTO 00000KT 9999 CLR 28/19 A2989 RMK AO2 SLP116 T02750187 $

Hora: 22:09 (20:09 UTC)

Pronòstic

L'informe es va fer fa 2 hores i 54 minuts, a les 17:15 UTC
Pronòstic vàlid del 18 a les 17 UTC al 19 a les 18 UTC
Vent 9 kt del Sud/Sud-Est
Visibilitat 10 km o més
Núvols disperses a una alçada de 5000 ft
Cel ennuvolat a una alçada de 9000 ft
Evolucionant progressivament
l' 18 a les 19 UTC al 18 a les 20 UTC
Vent 6 kt amb direcció variable
Visibilitat: 1904 m
Escasses núvols a una alçada de 8000 ft

TAF: ETOU 181715Z 1817/1918 15009KT 9999 SCT050 BKN090 QNH2989INS BECMG 1819/1820 VRB06KT 9999 FEW080 QNH2988INS TX31/1817Z TN18/1903Z LAST NO AMDS AFT 1817 NEXT 1904

Observacions i pronòstics meteorològics de més de 4000 aeroports (METAR i TAF).

Les estacions disponibles són els punts grocs i vermells al mapa.

Posi el ratolí al punt desitjat per veure el nom de l'estació.

Feu clic per veure les observacions i els pronòstics meteorològics.

Per canviar el mapa: feu clic els botons verds amb una creu de color negre per apropar; al botó verd amb un guió per allunyar la imatge; o en les fletxes verdes per a mapes adjacents.


METAR-TAF: